Time;durP1;ratioP1;P1;durP2;ratioP2;P2;SDS_P1;SDS_P2;PMS_P1;PMS_P2;Temp;Humidity;BMP_temperature;BMP_pressure;BME280_temperature;BME280_humidity;BME280_pressure;Samples;Min_cycle;Max_cycle;Signal;HPM_P1;HPM_P2
2021/01/05 00:00:17;;;;;;;19.88;10.32;;;;;;;;;;5028689;28;20532;-82
2021/01/05 00:02:43;;;;;;;16.08;9.20;;;;;;;;;;5052690;28;20094;-82
2021/01/05 00:05:09;;;;;;;17.65;10.02;;;;;;;;;;5050926;28;20017;-82
2021/01/05 00:07:35;;;;;;;14.13;10.07;;;;;;;;;;5048816;28;20033;-82
2021/01/05 00:10:03;;;;;;;13.55;9.85;;;;;;;;;;5043858;28;20083;-81
2021/01/05 00:12:29;;;;;;;18.15;10.02;;;;;;;;;;5042529;28;20029;-82
2021/01/05 00:14:55;;;;;;;14.35;9.43;;;;;;;;;;5055648;28;20497;-82
2021/01/05 00:17:22;;;;;;;13.93;10.15;;;;;;;;;;5039702;28;20490;-81
2021/01/05 00:19:48;;;;;;;16.33;10.45;;;;;;;;;;5048490;28;20025;-81
2021/01/05 00:22:14;;;;;;;17.40;10.05;;;;;;;;;;5053407;28;20529;-81
2021/01/05 00:24:41;;;;;;;17.38;9.68;;;;;;;;;;5046665;28;20021;-81
2021/01/05 00:27:07;;;;;;;17.45;10.13;;;;;;;;;;5047833;28;20029;-81
2021/01/05 00:29:33;;;;;;;13.93;8.73;;;;;;;;;;5034812;28;20094;-81
2021/01/05 00:32:06;;;;;;;13.82;9.48;;;;;;;;;;5041819;28;20033;-82
2021/01/05 00:34:32;;;;;;;14.07;9.40;;;;;;;;;;5019771;28;20214;-82
2021/01/05 00:36:58;;;;;;;15.95;10.15;;;;;;;;;;5047921;28;20110;-81
2021/01/05 00:39:24;;;;;;;14.70;8.93;;;;;;;;;;5039398;28;20033;-81
2021/01/05 00:41:50;;;;;;;14.68;9.27;;;;;;;;;;5031179;28;20022;-81
2021/01/05 00:44:16;;;;;;;17.17;9.35;;;;;;;;;;5056729;28;20028;-81
2021/01/05 00:46:42;;;;;;;17.00;9.00;;;;;;;;;;5032229;28;20025;-81
2021/01/05 00:49:08;;;;;;;16.13;8.80;;;;;;;;;;5034247;28;20335;-81
2021/01/05 00:51:34;;;;;;;11.40;7.63;;;;;;;;;;5050581;28;20028;-80
2021/01/05 00:54:00;;;;;;;13.55;8.77;;;;;;;;;;5027961;28;20025;-80
2021/01/05 00:56:26;;;;;;;15.77;7.68;;;;;;;;;;5042349;28;20037;-80
2021/01/05 00:58:53;;;;;;;15.05;8.18;;;;;;;;;;5051160;28;20029;-82
2021/01/05 01:01:20;;;;;;;14.07;8.98;;;;;;;;;;5032003;28;20036;-81
2021/01/05 01:03:47;;;;;;;12.57;6.93;;;;;;;;;;5027476;28;20026;-81
2021/01/05 01:06:13;;;;;;;12.60;6.45;;;;;;;;;;5040740;28;20396;-81
2021/01/05 01:08:39;;;;;;;17.30;8.25;;;;;;;;;;5029923;28;20036;-82
2021/01/05 01:11:05;;;;;;;16.65;7.47;;;;;;;;;;5043881;28;20082;-81
2021/01/05 01:13:31;;;;;;;11.65;7.70;;;;;;;;;;5018884;28;20112;-81
2021/01/05 01:15:57;;;;;;;14.52;8.50;;;;;;;;;;5039312;28;20029;-81
2021/01/05 01:18:23;;;;;;;13.60;7.60;;;;;;;;;;5031151;28;20029;-81
2021/01/05 01:20:50;;;;;;;14.20;7.28;;;;;;;;;;5052081;28;20513;-84
2021/01/05 01:23:17;;;;;;;12.98;9.20;;;;;;;;;;5028477;28;20163;-81
2021/01/05 01:25:43;;;;;;;14.60;9.68;;;;;;;;;;5037875;28;20675;-81
2021/01/05 01:28:09;;;;;;;16.90;9.50;;;;;;;;;;5046139;28;20029;-81
2021/01/05 01:30:35;;;;;;;13.88;8.95;;;;;;;;;;5046004;28;20410;-80
2021/01/05 01:33:01;;;;;;;15.00;10.73;;;;;;;;;;5049067;28;20033;-80
2021/01/05 01:35:27;;;;;;;12.70;8.43;;;;;;;;;;5041733;28;20041;-81
2021/01/05 01:37:53;;;;;;;15.55;8.70;;;;;;;;;;5037308;28;20083;-82
2021/01/05 01:40:24;;;;;;;12.88;8.95;;;;;;;;;;5025222;28;20033;-80
2021/01/05 01:42:50;;;;;;;14.48;8.05;;;;;;;;;;5052876;28;20025;-80
2021/01/05 01:45:22;;;;;;;16.70;10.02;;;;;;;;;;5046004;28;20052;-81
2021/01/05 01:47:48;;;;;;;14.25;9.02;;;;;;;;;;5045361;28;20025;-80
2021/01/05 01:50:17;;;;;;;17.20;9.88;;;;;;;;;;5051318;28;20048;-81
2021/01/05 01:53:06;;;;;;;15.45;9.52;;;;;;;;;;5055223;28;20040;-81
2021/01/05 01:55:55;;;;;;;16.90;9.45;;;;;;;;;;4994863;28;20045;-80
2021/01/05 01:58:30;;;;;;;15.50;8.63;;;;;;;;;;5044717;28;20040;-80
2021/01/05 02:01:14;;;;;;;16.00;9.35;;;;;;;;;;5045933;28;20029;-82
2021/01/05 02:04:02;;;;;;;14.25;7.32;;;;;;;;;;5045497;28;20459;-82
2021/01/05 02:06:31;;;;;;;14.02;9.18;;;;;;;;;;5050702;28;20036;-82
2021/01/05 02:09:15;;;;;;;16.05;8.23;;;;;;;;;;5035161;28;20029;-82
2021/01/05 02:12:07;;;;;;;15.32;10.38;;;;;;;;;;5043729;28;20066;-82
2021/01/05 02:14:44;;;;;;;15.98;9.98;;;;;;;;;;5022578;28;20033;-82
2021/01/05 02:17:29;;;;;;;12.02;8.20;;;;;;;;;;5049478;28;20180;-81
2021/01/05 02:20:02;;;;;;;18.23;10.80;;;;;;;;;;5039369;28;20044;-82
2021/01/05 02:22:31;;;;;;;18.42;10.48;;;;;;;;;;5056637;28;20601;-83
2021/01/05 02:25:12;;;;;;;19.00;10.43;;;;;;;;;;5014854;28;20025;-82
2021/01/05 02:27:45;;;;;;;19.92;12.25;;;;;;;;;;5032861;28;20456;-82
2021/01/05 02:30:12;;;;;;;16.98;11.00;;;;;;;;;;5053656;28;20052;-82
2021/01/05 02:32:43;;;;;;;23.67;12.70;;;;;;;;;;5044994;28;20032;-82
2021/01/05 02:35:09;;;;;;;18.88;10.73;;;;;;;;;;5033477;28;20329;-82
2021/01/05 02:37:38;;;;;;;20.13;12.80;;;;;;;;;;5036899;28;20099;-82
2021/01/05 02:40:19;;;;;;;17.13;10.60;;;;;;;;;;5041805;28;20025;-82
2021/01/05 02:43:04;;;;;;;22.13;12.00;;;;;;;;;;5044574;28;20067;-82
2021/01/05 02:45:36;;;;;;;14.85;10.63;;;;;;;;;;5045458;28;20087;-82
2021/01/05 02:48:09;;;;;;;22.50;13.90;;;;;;;;;;5024350;28;20490;-83
2021/01/05 02:50:35;;;;;;;18.33;11.95;;;;;;;;;;5022321;28;20521;-82
2021/01/05 02:53:19;;;;;;;16.48;9.30;;;;;;;;;;5050225;28;20025;-83
2021/01/05 02:56:03;;;;;;;20.08;10.55;;;;;;;;;;5051911;28;20037;-83
2021/01/05 02:58:32;;;;;;;17.25;10.77;;;;;;;;;;5040784;28;20021;-83
2021/01/05 03:01:01;;;;;;;16.90;9.88;;;;;;;;;;5046651;28;20052;-83
2021/01/05 03:03:40;;;;;;;16.42;11.52;;;;;;;;;;5033349;28;20025;-82
2021/01/05 03:06:12;;;;;;;17.65;11.55;;;;;;;;;;5042240;28;20128;-81
2021/01/05 03:08:45;;;;;;;17.58;10.32;;;;;;;;;;5049261;28;20063;-81
2021/01/05 03:11:12;;;;;;;20.35;11.95;;;;;;;;;;5046659;28;20090;-81
2021/01/05 03:14:00;;;;;;;19.58;12.25;;;;;;;;;;5036926;28;20103;-81
2021/01/05 03:16:29;;;;;;;20.52;12.10;;;;;;;;;;5046732;28;20025;-80
2021/01/05 03:19:01;;;;;;;15.73;10.52;;;;;;;;;;5036642;28;20033;-83
2021/01/05 03:21:35;;;;;;;18.67;11.80;;;;;;;;;;5042143;28;20024;-82
2021/01/05 03:24:02;;;;;;;17.52;10.82;;;;;;;;;;5050916;28;20017;-83
2021/01/05 03:26:32;;;;;;;17.92;11.35;;;;;;;;;;5031188;28;20025;-83
2021/01/05 03:29:00;;;;;;;23.02;12.88;;;;;;;;;;5030193;28;20033;-82
2021/01/05 03:31:32;;;;;;;19.92;13.15;;;;;;;;;;5042839;28;20033;-82
2021/01/05 03:34:00;;;;;;;21.23;14.13;;;;;;;;;;5035529;28;20418;-81
2021/01/05 03:36:26;;;;;;;21.80;13.50;;;;;;;;;;5044221;28;20048;-82
2021/01/05 03:38:52;;;;;;;23.30;14.63;;;;;;;;;;5034901;28;20438;-81
2021/01/05 03:41:18;;;;;;;22.45;12.90;;;;;;;;;;5041080;28;20025;-81
2021/01/05 03:43:44;;;;;;;20.00;12.75;;;;;;;;;;5054066;28;20037;-82
2021/01/05 03:46:14;;;;;;;22.20;14.07;;;;;;;;;;5036623;28;21069;-82
2021/01/05 03:48:40;;;;;;;22.02;13.80;;;;;;;;;;5039172;28;20651;-82
2021/01/05 03:51:07;;;;;;;20.77;12.85;;;;;;;;;;5043578;28;20501;-82
2021/01/05 03:53:33;;;;;;;21.83;14.43;;;;;;;;;;5042694;28;20423;-82
2021/01/05 03:55:59;;;;;;;22.23;14.38;;;;;;;;;;5030058;28;20510;-83
2021/01/05 03:58:25;;;;;;;24.85;13.93;;;;;;;;;;5029881;28;20033;-82
2021/01/05 04:00:51;;;;;;;22.45;12.82;;;;;;;;;;5042601;28;20013;-82
2021/01/05 04:03:17;;;;;;;22.88;13.63;;;;;;;;;;5028681;28;20021;-81
2021/01/05 04:05:43;;;;;;;22.42;14.20;;;;;;;;;;5048005;28;20489;-82
2021/01/05 04:08:09;;;;;;;23.00;13.60;;;;;;;;;;5038881;28;20111;-81
2021/01/05 04:10:35;;;;;;;21.30;12.63;;;;;;;;;;5028127;28;20060;-81
2021/01/05 04:13:01;;;;;;;20.05;11.80;;;;;;;;;;5049677;28;20021;-81
2021/01/05 04:15:29;;;;;;;18.13;12.23;;;;;;;;;;5034471;28;20060;-81
2021/01/05 04:17:56;;;;;;;19.38;12.60;;;;;;;;;;5041395;28;20035;-81
2021/01/05 04:20:23;;;;;;;18.98;12.27;;;;;;;;;;5042172;28;20114;-81
2021/01/05 04:22:49;;;;;;;18.48;12.40;;;;;;;;;;5029161;28;20033;-81
2021/01/05 04:25:16;;;;;;;18.83;10.82;;;;;;;;;;5038113;28;20027;-81
2021/01/05 04:27:42;;;;;;;19.55;11.00;;;;;;;;;;5049830;28;20032;-81
2021/01/05 04:30:16;;;;;;;16.80;11.30;;;;;;;;;;5029909;28;20541;-81
2021/01/05 04:32:42;;;;;;;18.92;10.85;;;;;;;;;;5049633;28;20033;-81
2021/01/05 04:35:10;;;;;;;20.10;12.15;;;;;;;;;;5046960;28;20029;-82
2021/01/05 04:37:36;;;;;;;21.30;11.45;;;;;;;;;;5047678;28;20052;-82
2021/01/05 04:40:03;;;;;;;18.05;12.52;;;;;;;;;;5052932;28;20401;-82
2021/01/05 04:42:32;;;;;;;23.50;11.65;;;;;;;;;;5046740;28;20033;-82
2021/01/05 04:45:07;;;;;;;18.90;12.25;;;;;;;;;;5047007;28;20025;-81
2021/01/05 04:47:42;;;;;;;17.77;11.48;;;;;;;;;;5043734;28;20048;-82
2021/01/05 04:50:11;;;;;;;17.17;10.85;;;;;;;;;;5021679;28;20025;-82
2021/01/05 04:53:01;;;;;;;17.90;11.05;;;;;;;;;;5056027;28;20048;-82
2021/01/05 04:55:46;;;;;;;16.48;10.82;;;;;;;;;;5032748;28;20041;-82
2021/01/05 04:58:30;;;;;;;17.42;10.75;;;;;;;;;;5040239;28;20084;-82
2021/01/05 05:00:58;;;;;;;18.67;10.40;;;;;;;;;;5032575;28;20024;-82
2021/01/05 05:03:43;;;;;;;21.67;10.77;;;;;;;;;;5032952;28;20028;-82
2021/01/05 05:06:26;;;;;;;15.63;11.70;;;;;;;;;;5043846;28;20102;-82
2021/01/05 05:08:59;;;;;;;16.33;11.63;;;;;;;;;;5035298;28;20390;-82
2021/01/05 05:11:25;;;;;;;17.77;11.60;;;;;;;;;;5041942;28;20166;-81
2021/01/05 05:13:55;;;;;;;14.55;11.25;;;;;;;;;;5047511;28;20024;-81
2021/01/05 05:16:42;;;;;;;17.73;9.90;;;;;;;;;;5046941;28;20552;-82
2021/01/05 05:19:20;;;;;;;18.92;11.15;;;;;;;;;;5022763;28;20292;-83
2021/01/05 05:21:50;;;;;;;16.85;10.43;;;;;;;;;;5049863;28;20021;-82
2021/01/05 05:24:22;;;;;;;20.05;11.00;;;;;;;;;;5045687;28;20032;-82
2021/01/05 05:26:57;;;;;;;19.00;12.27;;;;;;;;;;5045264;28;20171;-81
2021/01/05 05:29:32;;;;;;;19.98;12.13;;;;;;;;;;5046004;28;20411;-82
2021/01/05 05:32:03;;;;;;;20.13;13.20;;;;;;;;;;5034561;28;20029;-82
2021/01/05 05:34:36;;;;;;;18.83;13.55;;;;;;;;;;5038918;28;20014;-82
2021/01/05 05:37:02;;;;;;;19.92;12.10;;;;;;;;;;5047693;28;20041;-83
2021/01/05 05:39:31;;;;;;;20.02;12.15;;;;;;;;;;5042318;28;20522;-83
2021/01/05 05:42:05;;;;;;;22.15;12.05;;;;;;;;;;5019316;28;20581;-83
2021/01/05 05:44:41;;;;;;;22.42;12.52;;;;;;;;;;5045830;28;20048;-82
2021/01/05 05:47:27;;;;;;;20.75;12.27;;;;;;;;;;5052640;28;20040;-82
2021/01/05 05:49:53;;;;;;;22.77;16.27;;;;;;;;;;5027255;28;20033;-81
2021/01/05 05:52:23;;;;;;;24.15;16.77;;;;;;;;;;5041015;28;20060;-81
2021/01/05 05:54:49;;;;;;;23.85;15.93;;;;;;;;;;5051744;28;20506;-82
2021/01/05 05:57:34;;;;;;;23.77;12.98;;;;;;;;;;5032972;28;20239;-81
2021/01/05 06:00:08;;;;;;;20.65;13.18;;;;;;;;;;5030413;28;20119;-81
2021/01/05 06:02:34;;;;;;;23.00;14.20;;;;;;;;;;5042020;28;20673;-80
2021/01/05 06:05:02;;;;;;;24.20;14.77;;;;;;;;;;5042444;28;20045;-81
2021/01/05 06:07:28;;;;;;;23.30;15.02;;;;;;;;;;5047992;28;20033;-81
2021/01/05 06:09:54;;;;;;;24.40;15.27;;;;;;;;;;5051241;28;20626;-82
2021/01/05 06:12:20;;;;;;;21.73;15.10;;;;;;;;;;5035524;28;21267;-81
2021/01/05 06:14:46;;;;;;;21.48;13.88;;;;;;;;;;5038056;28;20025;-82
2021/01/05 06:17:12;;;;;;;22.90;12.80;;;;;;;;;;5030590;28;20041;-82
2021/01/05 06:19:39;;;;;;;22.15;14.35;;;;;;;;;;5030741;28;20040;-82
2021/01/05 06:22:05;;;;;;;22.02;14.13;;;;;;;;;;5047569;28;20033;-82
2021/01/05 06:24:31;;;;;;;24.35;15.88;;;;;;;;;;5045871;28;20090;-82
2021/01/05 06:26:57;;;;;;;25.10;15.50;;;;;;;;;;5043729;28;20017;-82
2021/01/05 06:29:23;;;;;;;22.13;14.73;;;;;;;;;;5041183;28;20033;-82
2021/01/05 06:31:49;;;;;;;21.90;13.70;;;;;;;;;;5049462;28;20059;-81
2021/01/05 06:34:15;;;;;;;24.20;15.38;;;;;;;;;;5030181;28;20164;-82
2021/01/05 06:36:41;;;;;;;22.02;13.60;;;;;;;;;;5033165;28;20115;-82
2021/01/05 06:39:07;;;;;;;20.55;14.07;;;;;;;;;;5048754;28;20426;-81
2021/01/05 06:41:33;;;;;;;21.35;13.90;;;;;;;;;;5033255;28;20102;-82
2021/01/05 06:43:59;;;;;;;19.60;12.65;;;;;;;;;;5029417;28;20037;-82
2021/01/05 06:46:25;;;;;;;18.60;11.40;;;;;;;;;;5048529;28;20468;-83
2021/01/05 06:48:51;;;;;;;20.80;14.60;;;;;;;;;;5032854;28;20040;-82
2021/01/05 06:51:17;;;;;;;19.30;11.75;;;;;;;;;;5032696;28;20052;-83
2021/01/05 06:53:43;;;;;;;21.45;13.93;;;;;;;;;;5046303;28;20537;-83
2021/01/05 06:56:13;;;;;;;20.85;13.18;;;;;;;;;;5047652;28;20052;-81
2021/01/05 06:58:39;;;;;;;19.15;12.18;;;;;;;;;;5040971;28;20031;-81
2021/01/05 07:01:05;;;;;;;20.80;12.13;;;;;;;;;;5047691;28;20059;-83
2021/01/05 07:03:31;;;;;;;19.10;14.23;;;;;;;;;;5032032;28;20090;-81
2021/01/05 07:05:57;;;;;;;19.17;12.38;;;;;;;;;;5029265;28;20483;-83
2021/01/05 07:08:25;;;;;;;21.95;13.90;;;;;;;;;;5047704;28;20059;-83
2021/01/05 07:10:51;;;;;;;21.33;13.63;;;;;;;;;;5043401;28;20043;-82
2021/01/05 07:13:17;;;;;;;22.50;13.85;;;;;;;;;;5046666;28;20022;-83
2021/01/05 07:15:43;;;;;;;20.33;11.27;;;;;;;;;;5024179;28;20025;-82
2021/01/05 07:18:09;;;;;;;25.00;13.35;;;;;;;;;;5032026;28;20216;-82
2021/01/05 07:20:35;;;;;;;20.92;12.73;;;;;;;;;;5048929;28;20049;-81
2021/01/05 07:23:01;;;;;;;20.67;11.88;;;;;;;;;;5047485;28;20026;-82
2021/01/05 07:25:28;;;;;;;20.85;11.32;;;;;;;;;;5033318;28;20024;-81
2021/01/05 07:27:54;;;;;;;21.05;12.07;;;;;;;;;;5048155;28;20037;-82
2021/01/05 07:30:20;;;;;;;20.88;12.57;;;;;;;;;;5040040;28;20033;-82
2021/01/05 07:32:46;;;;;;;22.63;12.82;;;;;;;;;;5032678;28;20131;-83
2021/01/05 07:35:12;;;;;;;20.05;11.82;;;;;;;;;;5028299;28;20529;-83
2021/01/05 07:37:41;;;;;;;21.40;12.90;;;;;;;;;;5046091;28;20569;-82
2021/01/05 07:40:09;;;;;;;22.75;13.07;;;;;;;;;;5044137;28;20613;-81
2021/01/05 07:42:35;;;;;;;19.35;10.63;;;;;;;;;;5050813;28;20024;-80
2021/01/05 07:45:02;;;;;;;19.13;11.07;;;;;;;;;;5029187;28;20075;-80
2021/01/05 07:47:29;;;;;;;19.75;10.43;;;;;;;;;;5034198;28;20026;-82
2021/01/05 07:49:55;;;;;;;20.88;11.57;;;;;;;;;;5052292;28;20033;-81
2021/01/05 07:52:34;;;;;;;23.45;14.80;;;;;;;;;;5034163;28;20025;-83
2021/01/05 07:55:00;;;;;;;23.30;13.73;;;;;;;;;;5044512;28;20028;-80
2021/01/05 07:57:26;;;;;;;21.83;11.07;;;;;;;;;;5029429;28;20112;-82
2021/01/05 07:59:53;;;;;;;24.35;13.32;;;;;;;;;;5051562;28;20061;-81
2021/01/05 08:02:19;;;;;;;23.83;13.32;;;;;;;;;;5035200;28;20075;-83
2021/01/05 08:04:45;;;;;;;22.90;12.25;;;;;;;;;;5049670;28;20040;-85
2021/01/05 08:07:11;;;;;;;25.88;13.88;;;;;;;;;;5036666;28;20113;-82
2021/01/05 08:09:38;;;;;;;26.33;14.77;;;;;;;;;;5036476;28;20017;-82
2021/01/05 08:12:04;;;;;;;25.13;15.50;;;;;;;;;;5056911;28;20036;-83
2021/01/05 08:14:30;;;;;;;21.73;13.32;;;;;;;;;;5045775;28;20048;-83
2021/01/05 08:16:56;;;;;;;23.65;14.43;;;;;;;;;;5037338;28;20029;-83
2021/01/05 08:19:22;;;;;;;26.13;14.50;;;;;;;;;;5036809;28;20029;-82
2021/01/05 08:21:48;;;;;;;25.35;14.68;;;;;;;;;;5048791;28;20030;-82
2021/01/05 08:24:14;;;;;;;23.17;13.52;;;;;;;;;;5048458;28;20049;-84
2021/01/05 08:26:43;;;;;;;24.38;14.05;;;;;;;;;;5052661;28;20017;-83
2021/01/05 08:29:09;;;;;;;25.23;13.25;;;;;;;;;;5033613;28;20028;-84
2021/01/05 08:31:37;;;;;;;23.20;12.55;;;;;;;;;;5031565;28;20028;-83
2021/01/05 08:34:03;;;;;;;26.45;13.27;;;;;;;;;;5045615;28;20055;-81
2021/01/05 08:36:30;;;;;;;22.88;12.30;;;;;;;;;;5049889;28;20044;-82
2021/01/05 08:38:57;;;;;;;25.88;13.52;;;;;;;;;;5051655;28;20029;-83
2021/01/05 08:41:23;;;;;;;25.35;13.77;;;;;;;;;;5052488;28;20025;-81
2021/01/05 08:43:49;;;;;;;24.13;14.15;;;;;;;;;;5050052;28;20018;-82
2021/01/05 08:46:19;;;;;;;26.27;14.75;;;;;;;;;;5049667;28;20025;-84
2021/01/05 08:48:45;;;;;;;25.33;13.55;;;;;;;;;;5031486;28;20128;-82
2021/01/05 08:51:11;;;;;;;25.08;13.43;;;;;;;;;;5029514;28;20068;-83
2021/01/05 08:53:37;;;;;;;22.75;12.90;;;;;;;;;;5032551;28;20052;-82
2021/01/05 08:56:03;;;;;;;22.10;13.25;;;;;;;;;;5048661;28;20032;-85
2021/01/05 08:58:29;;;;;;;24.02;13.40;;;;;;;;;;5050281;28;20107;-83
2021/01/05 09:00:56;;;;;;;24.13;13.07;;;;;;;;;;5031932;28;20076;-81
2021/01/05 09:03:22;;;;;;;24.13;13.23;;;;;;;;;;5048630;28;20055;-81
2021/01/05 09:05:48;;;;;;;24.40;14.20;;;;;;;;;;5030975;28;20025;-83
2021/01/05 09:08:14;;;;;;;23.90;12.88;;;;;;;;;;5051212;28;20040;-82
2021/01/05 09:10:40;;;;;;;24.92;13.80;;;;;;;;;;5031593;28;20032;-83
2021/01/05 09:13:06;;;;;;;24.13;14.57;;;;;;;;;;5047915;28;20029;-82
2021/01/05 09:15:32;;;;;;;27.23;14.90;;;;;;;;;;5028600;28;20064;-81
2021/01/05 09:18:02;;;;;;;26.80;13.77;;;;;;;;;;5034883;28;20025;-85
2021/01/05 09:20:28;;;;;;;29.67;16.75;;;;;;;;;;5047555;28;20025;-83
2021/01/05 09:22:55;;;;;;;29.05;15.77;;;;;;;;;;5026226;28;20112;-83
2021/01/05 09:25:21;;;;;;;26.88;13.75;;;;;;;;;;5028278;28;20021;-83
2021/01/05 09:27:47;;;;;;;26.92;13.00;;;;;;;;;;5029628;28;20053;-82
2021/01/05 09:30:15;;;;;;;28.58;16.35;;;;;;;;;;5041206;28;20517;-83
2021/01/05 09:32:41;;;;;;;26.88;13.73;;;;;;;;;;5044994;28;20021;-83
2021/01/05 09:35:08;;;;;;;28.55;14.85;;;;;;;;;;5030857;28;20112;-83
2021/01/05 09:37:34;;;;;;;26.05;13.90;;;;;;;;;;5033620;28;20071;-83
2021/01/05 09:40:00;;;;;;;26.77;14.77;;;;;;;;;;5033649;28;20040;-84
2021/01/05 09:42:29;;;;;;;27.75;15.63;;;;;;;;;;5045736;28;20032;-84
2021/01/05 09:44:55;;;;;;;28.63;13.23;;;;;;;;;;5048241;28;20505;-85
2021/01/05 09:47:21;;;;;;;24.45;14.65;;;;;;;;;;5046195;28;20064;-82
2021/01/05 09:49:48;;;;;;;27.13;14.52;;;;;;;;;;5036239;28;20026;-83
2021/01/05 09:52:14;;;;;;;26.75;14.90;;;;;;;;;;5041234;28;20076;-83
2021/01/05 09:54:43;;;;;;;29.27;13.45;;;;;;;;;;5031346;28;20024;-83
2021/01/05 09:57:09;;;;;;;26.00;14.70;;;;;;;;;;5030599;28;20109;-81
2021/01/05 09:59:38;;;;;;;25.58;13.32;;;;;;;;;;5041061;28;20021;-82
2021/01/05 10:02:05;;;;;;;22.55;12.40;;;;;;;;;;5049902;28;20510;-83
2021/01/05 10:04:31;;;;;;;24.20;12.43;;;;;;;;;;5047965;28;20536;-83
2021/01/05 10:06:57;;;;;;;25.08;12.70;;;;;;;;;;5032645;28;20376;-82
2021/01/05 10:09:23;;;;;;;24.42;13.55;;;;;;;;;;5031746;28;20487;-82
2021/01/05 10:11:50;;;;;;;24.02;12.55;;;;;;;;;;5044011;28;20560;-86
2021/01/05 10:14:18;;;;;;;26.50;12.45;;;;;;;;;;5043119;28;20143;-83
2021/01/05 10:16:44;;;;;;;23.25;13.07;;;;;;;;;;5050140;28;20107;-82
2021/01/05 10:19:11;;;;;;;24.38;15.50;;;;;;;;;;5033116;28;20033;-83
2021/01/05 10:21:39;;;;;;;24.50;14.85;;;;;;;;;;5029471;28;20116;-82
2021/01/05 10:24:06;;;;;;;23.88;15.35;;;;;;;;;;5029973;28;20025;-85
2021/01/05 10:26:33;;;;;;;25.92;14.80;;;;;;;;;;5032132;28;20029;-83
2021/01/05 10:28:59;;;;;;;27.00;18.25;;;;;;;;;;5045840;28;20033;-82
2021/01/05 10:31:25;;;;;;;27.27;16.02;;;;;;;;;;5030811;28;20033;-82
2021/01/05 10:33:51;;;;;;;28.23;18.58;;;;;;;;;;5042763;28;20478;-84
2021/01/05 10:36:21;;;;;;;30.08;20.00;;;;;;;;;;5045166;28;20076;-83
2021/01/05 10:38:48;;;;;;;29.88;18.65;;;;;;;;;;5031126;28;20056;-82
2021/01/05 10:41:15;;;;;;;31.73;18.15;;;;;;;;;;5032452;28;20497;-83
2021/01/05 10:43:41;;;;;;;32.40;17.58;;;;;;;;;;5048437;28;20025;-82
2021/01/05 10:46:07;;;;;;;31.38;17.35;;;;;;;;;;5029487;28;20044;-83
2021/01/05 10:48:33;;;;;;;34.90;20.38;;;;;;;;;;5032028;28;20047;-83
2021/01/05 10:50:59;;;;;;;35.58;22.92;;;;;;;;;;5041319;28;20052;-82
2021/01/05 10:53:26;;;;;;;34.03;20.00;;;;;;;;;;5041684;28;20033;-81
2021/01/05 10:55:52;;;;;;;29.00;16.13;;;;;;;;;;5023189;28;20469;-81
2021/01/05 10:58:19;;;;;;;28.95;17.52;;;;;;;;;;5049366;28;20033;-79
2021/01/05 11:00:45;;;;;;;26.77;15.55;;;;;;;;;;5048394;28;20028;-82
2021/01/05 11:03:11;;;;;;;26.95;17.90;;;;;;;;;;5041142;28;20028;-84
2021/01/05 11:05:37;;;;;;;25.73;15.57;;;;;;;;;;5043906;28;20029;-84
2021/01/05 11:08:03;;;;;;;27.42;15.70;;;;;;;;;;5042716;28;20506;-83
2021/01/05 11:10:29;;;;;;;26.73;16.80;;;;;;;;;;5055241;28;20043;-83
2021/01/05 11:12:58;;;;;;;28.98;18.23;;;;;;;;;;5043453;28;20021;-84
2021/01/05 11:15:24;;;;;;;27.55;16.98;;;;;;;;;;5056260;28;20467;-84
2021/01/05 11:17:50;;;;;;;26.27;15.77;;;;;;;;;;5033313;28;20045;-84
2021/01/05 11:20:17;;;;;;;28.90;16.05;;;;;;;;;;5050452;28;20145;-84
2021/01/05 11:22:44;;;;;;;27.00;14.65;;;;;;;;;;5027515;28;20053;-84
2021/01/05 11:25:13;;;;;;;25.25;16.33;;;;;;;;;;5043850;28;20023;-83
2021/01/05 11:27:39;;;;;;;23.10;13.63;;;;;;;;;;5033308;28;20112;-82
2021/01/05 11:30:06;;;;;;;25.45;15.75;;;;;;;;;;5043856;28;20398;-83
2021/01/05 11:32:32;;;;;;;26.50;15.27;;;;;;;;;;5042073;28;21393;-84
2021/01/05 11:34:58;;;;;;;21.58;14.95;;;;;;;;;;5021722;28;20025;-85
2021/01/05 11:37:24;;;;;;;23.63;13.23;;;;;;;;;;5032385;28;20040;-87
2021/01/05 11:39:51;;;;;;;28.35;15.18;;;;;;;;;;5024484;28;20037;-88
2021/01/05 11:42:19;;;;;;;24.88;15.82;;;;;;;;;;5033639;28;20496;-82
2021/01/05 11:44:46;;;;;;;28.63;16.17;;;;;;;;;;5020803;28;20624;-83
2021/01/05 11:47:16;;;;;;;26.23;15.15;;;;;;;;;;5024397;28;20061;-84
2021/01/05 11:49:42;;;;;;;24.92;14.23;;;;;;;;;;5050270;28;20029;-83
2021/01/05 11:52:08;;;;;;;25.35;14.95;;;;;;;;;;5051270;28;20024;-85
2021/01/05 11:54:34;;;;;;;27.48;16.13;;;;;;;;;;5041875;28;20033;-84
2021/01/05 11:57:01;;;;;;;25.70;15.43;;;;;;;;;;5035409;28;20388;-86
2021/01/05 11:59:30;;;;;;;30.30;14.05;;;;;;;;;;5037633;28;20093;-85
2021/01/05 12:01:57;;;;;;;25.25;13.95;;;;;;;;;;5057058;28;20016;-85
2021/01/05 12:04:23;;;;;;;25.17;14.30;;;;;;;;;;5033419;28;20016;-83
2021/01/05 12:06:50;;;;;;;26.13;15.50;;;;;;;;;;5045839;28;20025;-84
2021/01/05 12:09:16;;;;;;;29.95;17.13;;;;;;;;;;5048962;28;20048;-83
2021/01/05 12:11:44;;;;;;;27.92;16.20;;;;;;;;;;5045816;28;20051;-83
2021/01/05 12:14:11;;;;;;;26.58;16.83;;;;;;;;;;5046499;28;20202;-85
2021/01/05 12:16:39;;;;;;;26.23;15.57;;;;;;;;;;5048017;28;20026;-84
2021/01/05 12:19:08;;;;;;;28.13;17.67;;;;;;;;;;5026431;28;20045;-82
2021/01/05 12:21:35;;;;;;;27.05;15.27;;;;;;;;;;5032871;28;20461;-84
2021/01/05 12:24:01;;;;;;;27.60;16.45;;;;;;;;;;5048626;28;20029;-85
2021/01/05 12:26:32;;;;;;;27.58;15.60;;;;;;;;;;5046454;28;20053;-83
2021/01/05 12:28:59;;;;;;;27.98;15.52;;;;;;;;;;5043549;28;20055;-84
2021/01/05 12:31:25;;;;;;;28.10;15.95;;;;;;;;;;5046634;28;20040;-84
2021/01/05 12:33:52;;;;;;;25.95;15.85;;;;;;;;;;5047261;28;20060;-83
2021/01/05 12:36:35;;;;;;;27.52;16.23;;;;;;;;;;5052628;28;20120;-83
2021/01/05 12:39:01;;;;;;;29.38;15.65;;;;;;;;;;5050678;28;20029;-84
2021/01/05 12:41:31;;;;;;;31.23;19.60;;;;;;;;;;5053981;28;20029;-84
2021/01/05 12:43:57;;;;;;;31.02;20.10;;;;;;;;;;5046612;28;20021;-84
2021/01/05 12:46:25;;;;;;;28.77;19.55;;;;;;;;;;5042132;28;20114;-81
2021/01/05 12:48:51;;;;;;;32.22;19.20;;;;;;;;;;5034042;28;20029;-82
2021/01/05 12:51:25;;;;;;;26.85;17.52;;;;;;;;;;5049911;28;20460;-83
2021/01/05 12:53:51;;;;;;;30.13;18.55;;;;;;;;;;5049866;28;20025;-81
2021/01/05 12:56:17;;;;;;;29.40;16.45;;;;;;;;;;5051135;28;20028;-84
2021/01/05 12:58:43;;;;;;;26.45;15.60;;;;;;;;;;5049664;28;20037;-82
2021/01/05 13:01:09;;;;;;;24.23;15.10;;;;;;;;;;5045215;28;20064;-83
2021/01/05 13:03:35;;;;;;;24.08;12.13;;;;;;;;;;5035571;28;20103;-83
2021/01/05 13:06:01;;;;;;;24.70;14.30;;;;;;;;;;5029917;28;20220;-81
2021/01/05 13:08:27;;;;;;;24.23;14.32;;;;;;;;;;5052734;28;20275;-82
2021/01/05 13:10:53;;;;;;;25.20;13.93;;;;;;;;;;5045542;28;20513;-84
2021/01/05 13:13:19;;;;;;;23.52;13.25;;;;;;;;;;5046136;28;20411;-83
2021/01/05 13:15:46;;;;;;;22.42;12.85;;;;;;;;;;5044828;28;20037;-81
2021/01/05 13:18:12;;;;;;;21.85;13.15;;;;;;;;;;5044298;28;20026;-81
2021/01/05 13:20:39;;;;;;;21.88;11.80;;;;;;;;;;5044753;28;20040;-82
2021/01/05 13:23:05;;;;;;;19.63;13.20;;;;;;;;;;5041685;28;20017;-85
2021/01/05 13:25:31;;;;;;;23.10;11.98;;;;;;;;;;5044021;28;20013;-85
2021/01/05 13:27:58;;;;;;;24.80;14.60;;;;;;;;;;5040605;28;20032;-83
2021/01/05 13:30:24;;;;;;;24.42;13.68;;;;;;;;;;5047150;28;20043;-81
2021/01/05 13:32:50;;;;;;;22.13;13.85;;;;;;;;;;5043672;28;20056;-84
2021/01/05 13:35:16;;;;;;;22.20;13.27;;;;;;;;;;5047402;28;20119;-83
2021/01/05 13:37:42;;;;;;;21.17;13.68;;;;;;;;;;5032347;28;20052;-82
2021/01/05 13:40:09;;;;;;;24.35;14.20;;;;;;;;;;5047573;28;20040;-82
2021/01/05 13:42:35;;;;;;;24.33;14.63;;;;;;;;;;5054125;28;20463;-81
2021/01/05 13:45:01;;;;;;;24.42;15.63;;;;;;;;;;5045421;28;20661;-82
2021/01/05 13:47:27;;;;;;;23.23;14.70;;;;;;;;;;5050742;28;20031;-83
2021/01/05 13:49:54;;;;;;;24.05;15.23;;;;;;;;;;5052324;28;20461;-82
2021/01/05 13:52:22;;;;;;;26.60;16.45;;;;;;;;;;5034226;28;20047;-85
2021/01/05 13:54:48;;;;;;;26.77;13.85;;;;;;;;;;5026818;28;20044;-85
2021/01/05 13:57:16;;;;;;;25.70;14.55;;;;;;;;;;5047644;28;20083;-86
2021/01/05 13:59:42;;;;;;;26.80;14.93;;;;;;;;;;5043186;28;20047;-87
2021/01/05 14:02:09;;;;;;;26.50;15.70;;;;;;;;;;5051837;28;20021;-87
2021/01/05 14:04:36;;;;;;;23.90;13.35;;;;;;;;;;5046954;28;20032;-83
2021/01/05 14:07:09;;;;;;;23.67;14.80;;;;;;;;;;5047985;28;20486;-84
2021/01/05 14:09:36;;;;;;;25.23;14.23;;;;;;;;;;5047959;28;20032;-84
2021/01/05 14:12:02;;;;;;;26.65;15.73;;;;;;;;;;5029761;28;20029;-84
2021/01/05 14:14:28;;;;;;;25.40;16.52;;;;;;;;;;5048325;28;20017;-83
2021/01/05 14:16:55;;;;;;;27.85;16.15;;;;;;;;;;5047541;28;20078;-84
2021/01/05 14:19:22;;;;;;;27.67;16.52;;;;;;;;;;5032367;28;20438;-84
2021/01/05 14:21:49;;;;;;;27.02;14.45;;;;;;;;;;5050441;28;20033;-87
2021/01/05 14:24:17;;;;;;;23.20;13.52;;;;;;;;;;5048417;28;20029;-85